sensor_id;sensor_type;location;lat;lon;timestamp;temperature;humidity
27922;DHT22;15261;50.356;10.340;2024-01-25T00:00:53;6.80;99.90
27922;DHT22;15261;50.356;10.340;2024-01-25T00:03:18;6.80;99.90
27922;DHT22;15261;50.356;10.340;2024-01-25T00:05:44;6.80;99.90
27922;DHT22;15261;50.356;10.340;2024-01-25T00:08:09;6.80;99.90
27922;DHT22;15261;50.356;10.340;2024-01-25T00:10:35;6.90;99.90
27922;DHT22;15261;50.356;10.340;2024-01-25T00:13:01;6.90;99.90
27922;DHT22;15261;50.356;10.340;2024-01-25T00:15:27;6.90;99.90
27922;DHT22;15261;50.356;10.340;2024-01-25T00:17:52;6.90;99.90
27922;DHT22;15261;50.356;10.340;2024-01-25T00:20:18;6.90;99.90
27922;DHT22;15261;50.356;10.340;2024-01-25T00:22:43;7.00;99.90
27922;DHT22;15261;50.356;10.340;2024-01-25T00:25:09;7.00;99.90
27922;DHT22;15261;50.356;10.340;2024-01-25T00:27:35;7.00;99.90
27922;DHT22;15261;50.356;10.340;2024-01-25T00:30:00;6.90;99.90
27922;DHT22;15261;50.356;10.340;2024-01-25T00:32:26;6.90;99.90
27922;DHT22;15261;50.356;10.340;2024-01-25T00:34:52;6.80;99.90
27922;DHT22;15261;50.356;10.340;2024-01-25T00:37:17;6.70;99.90
27922;DHT22;15261;50.356;10.340;2024-01-25T00:39:43;6.80;99.90
27922;DHT22;15261;50.356;10.340;2024-01-25T00:42:12;6.80;99.90
27922;DHT22;15261;50.356;10.340;2024-01-25T00:44:40;6.80;99.90
27922;DHT22;15261;50.356;10.340;2024-01-25T00:47:06;6.70;99.90
27922;DHT22;15261;50.356;10.340;2024-01-25T00:49:31;6.70;99.90
27922;DHT22;15261;50.356;10.340;2024-01-25T00:52:02;6.60;99.90
27922;DHT22;15261;50.356;10.340;2024-01-25T00:54:28;6.60;99.90
27922;DHT22;15261;50.356;10.340;2024-01-25T00:56:54;6.60;99.90
27922;DHT22;15261;50.356;10.340;2024-01-25T00:59:21;6.70;99.90
27922;DHT22;15261;50.356;10.340;2024-01-25T01:01:47;6.70;99.90
27922;DHT22;15261;50.356;10.340;2024-01-25T01:04:16;6.80;99.90
27922;DHT22;15261;50.356;10.340;2024-01-25T01:06:41;6.80;99.90
27922;DHT22;15261;50.356;10.340;2024-01-25T01:09:07;6.80;99.90
27922;DHT22;15261;50.356;10.340;2024-01-25T01:11:33;6.80;99.90
27922;DHT22;15261;50.356;10.340;2024-01-25T01:13:59;6.90;99.90
27922;DHT22;15261;50.356;10.340;2024-01-25T01:16:25;6.90;99.90
27922;DHT22;15261;50.356;10.340;2024-01-25T01:18:50;7.00;99.90
27922;DHT22;15261;50.356;10.340;2024-01-25T01:21:16;7.10;99.90
27922;DHT22;15261;50.356;10.340;2024-01-25T01:23:41;7.00;99.90
27922;DHT22;15261;50.356;10.340;2024-01-25T01:26:07;7.10;99.90
27922;DHT22;15261;50.356;10.340;2024-01-25T01:28:33;7.10;99.90
27922;DHT22;15261;50.356;10.340;2024-01-25T01:30:58;7.20;99.90
27922;DHT22;15261;50.356;10.340;2024-01-25T01:33:24;7.20;99.90
27922;DHT22;15261;50.356;10.340;2024-01-25T01:35:49;7.20;99.90
27922;DHT22;15261;50.356;10.340;2024-01-25T01:38:15;7.30;99.90
27922;DHT22;15261;50.356;10.340;2024-01-25T01:40:40;7.30;99.90
27922;DHT22;15261;50.356;10.340;2024-01-25T01:43:06;7.30;99.90
27922;DHT22;15261;50.356;10.340;2024-01-25T01:45:31;7.30;99.90
27922;DHT22;15261;50.356;10.340;2024-01-25T01:47:58;7.30;99.90
27922;DHT22;15261;50.356;10.340;2024-01-25T01:50:24;7.30;99.90
27922;DHT22;15261;50.356;10.340;2024-01-25T01:52:50;7.30;99.90
27922;DHT22;15261;50.356;10.340;2024-01-25T01:55:17;7.20;99.90
27922;DHT22;15261;50.356;10.340;2024-01-25T01:57:44;7.30;99.90
27922;DHT22;15261;50.356;10.340;2024-01-25T02:00:14;7.20;99.90
27922;DHT22;15261;50.356;10.340;2024-01-25T02:21:49;6.90;99.90
27922;DHT22;15261;50.356;10.340;2024-01-25T02:24:16;6.80;99.90
27922;DHT22;15261;50.356;10.340;2024-01-25T02:26:42;6.70;99.90
27922;DHT22;15261;50.356;10.340;2024-01-25T02:29:07;6.70;99.90
27922;DHT22;15261;50.356;10.340;2024-01-25T02:31:35;6.60;99.90
27922;DHT22;15261;50.356;10.340;2024-01-25T02:34:00;6.70;99.90
27922;DHT22;15261;50.356;10.340;2024-01-25T02:36:26;6.70;99.90
27922;DHT22;15261;50.356;10.340;2024-01-25T02:38:51;6.60;99.90
27922;DHT22;15261;50.356;10.340;2024-01-25T02:41:17;6.70;99.90
27922;DHT22;15261;50.356;10.340;2024-01-25T02:43:42;6.70;99.90
27922;DHT22;15261;50.356;10.340;2024-01-25T02:46:08;6.80;99.90
27922;DHT22;15261;50.356;10.340;2024-01-25T02:48:34;6.80;99.90
27922;DHT22;15261;50.356;10.340;2024-01-25T02:51:07;6.90;99.90
27922;DHT22;15261;50.356;10.340;2024-01-25T02:53:32;6.80;99.90
27922;DHT22;15261;50.356;10.340;2024-01-25T02:55:58;6.90;99.90
27922;DHT22;15261;50.356;10.340;2024-01-25T02:58:23;6.80;99.90
27922;DHT22;15261;50.356;10.340;2024-01-25T03:00:49;6.70;99.90
27922;DHT22;15261;50.356;10.340;2024-01-25T03:03:14;6.60;99.90
27922;DHT22;15261;50.356;10.340;2024-01-25T03:05:40;6.50;99.90
27922;DHT22;15261;50.356;10.340;2024-01-25T03:08:06;6.40;99.90
27922;DHT22;15261;50.356;10.340;2024-01-25T03:10:31;6.30;99.90
27922;DHT22;15261;50.356;10.340;2024-01-25T03:12:57;6.30;99.90
27922;DHT22;15261;50.356;10.340;2024-01-25T03:15:22;6.20;99.90
27922;DHT22;15261;50.356;10.340;2024-01-25T03:17:48;6.20;99.90
27922;DHT22;15261;50.356;10.340;2024-01-25T03:20:14;6.20;99.90
27922;DHT22;15261;50.356;10.340;2024-01-25T03:22:39;6.20;99.90
27922;DHT22;15261;50.356;10.340;2024-01-25T03:25:05;6.20;99.90
27922;DHT22;15261;50.356;10.340;2024-01-25T03:27:30;6.20;99.90
27922;DHT22;15261;50.356;10.340;2024-01-25T03:29:56;6.20;99.90
27922;DHT22;15261;50.356;10.340;2024-01-25T03:32:22;6.20;99.90
27922;DHT22;15261;50.356;10.340;2024-01-25T03:34:47;6.20;99.90
27922;DHT22;15261;50.356;10.340;2024-01-25T03:37:13;6.10;99.90
27922;DHT22;15261;50.356;10.340;2024-01-25T03:39:38;6.20;99.90
27922;DHT22;15261;50.356;10.340;2024-01-25T03:42:04;6.20;99.90
27922;DHT22;15261;50.356;10.340;2024-01-25T03:44:29;6.50;99.90
27922;DHT22;15261;50.356;10.340;2024-01-25T03:46:55;6.50;99.90
27922;DHT22;15261;50.356;10.340;2024-01-25T03:49:20;6.60;99.90
27922;DHT22;15261;50.356;10.340;2024-01-25T03:51:48;6.50;99.90
27922;DHT22;15261;50.356;10.340;2024-01-25T03:54:14;6.40;99.90
27922;DHT22;15261;50.356;10.340;2024-01-25T03:56:39;6.40;99.90
27922;DHT22;15261;50.356;10.340;2024-01-25T03:59:05;6.40;99.90
27922;DHT22;15261;50.356;10.340;2024-01-25T04:01:41;6.40;99.90
27922;DHT22;15261;50.356;10.340;2024-01-25T04:04:07;6.40;99.90
27922;DHT22;15261;50.356;10.340;2024-01-25T04:06:34;6.50;99.90
27922;DHT22;15261;50.356;10.340;2024-01-25T04:09:00;6.60;99.90
27922;DHT22;15261;50.356;10.340;2024-01-25T04:11:25;6.70;99.90
27922;DHT22;15261;50.356;10.340;2024-01-25T04:13:51;6.80;99.90
27922;DHT22;15261;50.356;10.340;2024-01-25T04:16:16;6.80;99.90
27922;DHT22;15261;50.356;10.340;2024-01-25T04:18:42;6.80;99.90
27922;DHT22;15261;50.356;10.340;2024-01-25T04:21:07;6.80;99.90
27922;DHT22;15261;50.356;10.340;2024-01-25T04:23:34;6.80;99.90
27922;DHT22;15261;50.356;10.340;2024-01-25T04:26:00;6.70;99.90
27922;DHT22;15261;50.356;10.340;2024-01-25T04:28:26;6.70;99.90
27922;DHT22;15261;50.356;10.340;2024-01-25T04:30:51;6.80;99.90
27922;DHT22;15261;50.356;10.340;2024-01-25T04:33:17;6.80;99.90
27922;DHT22;15261;50.356;10.340;2024-01-25T04:35:43;7.00;99.90
27922;DHT22;15261;50.356;10.340;2024-01-25T04:38:09;7.00;99.90
27922;DHT22;15261;50.356;10.340;2024-01-25T04:40:34;6.90;99.90
27922;DHT22;15261;50.356;10.340;2024-01-25T04:43:00;6.90;99.90
27922;DHT22;15261;50.356;10.340;2024-01-25T04:45:25;6.90;99.90
27922;DHT22;15261;50.356;10.340;2024-01-25T04:47:51;6.80;99.90
27922;DHT22;15261;50.356;10.340;2024-01-25T04:50:16;6.80;99.90
27922;DHT22;15261;50.356;10.340;2024-01-25T04:52:42;6.80;99.90
27922;DHT22;15261;50.356;10.340;2024-01-25T04:55:08;6.80;99.90
27922;DHT22;15261;50.356;10.340;2024-01-25T04:57:33;6.80;99.90
27922;DHT22;15261;50.356;10.340;2024-01-25T04:59:59;6.90;99.90
27922;DHT22;15261;50.356;10.340;2024-01-25T05:05:45;6.80;99.90
27922;DHT22;15261;50.356;10.340;2024-01-25T05:08:10;6.70;99.90
27922;DHT22;15261;50.356;10.340;2024-01-25T05:10:36;6.60;99.90
27922;DHT22;15261;50.356;10.340;2024-01-25T05:13:02;6.60;99.90
27922;DHT22;15261;50.356;10.340;2024-01-25T05:15:27;6.60;99.90
27922;DHT22;15261;50.356;10.340;2024-01-25T05:17:53;6.70;99.90
27922;DHT22;15261;50.356;10.340;2024-01-25T05:20:18;6.70;99.90
27922;DHT22;15261;50.356;10.340;2024-01-25T05:22:44;6.70;99.90
27922;DHT22;15261;50.356;10.340;2024-01-25T05:25:11;6.60;99.90
27922;DHT22;15261;50.356;10.340;2024-01-25T05:27:36;6.50;99.90
27922;DHT22;15261;50.356;10.340;2024-01-25T05:30:02;6.40;99.90
27922;DHT22;15261;50.356;10.340;2024-01-25T05:32:28;6.50;99.90
27922;DHT22;15261;50.356;10.340;2024-01-25T05:34:54;6.60;99.90
27922;DHT22;15261;50.356;10.340;2024-01-25T05:37:19;6.60;99.90
27922;DHT22;15261;50.356;10.340;2024-01-25T05:39:45;6.60;99.90
27922;DHT22;15261;50.356;10.340;2024-01-25T05:42:10;6.60;99.90
27922;DHT22;15261;50.356;10.340;2024-01-25T05:44:36;6.60;99.90
27922;DHT22;15261;50.356;10.340;2024-01-25T05:47:02;6.60;99.90
27922;DHT22;15261;50.356;10.340;2024-01-25T05:49:27;6.50;99.90
27922;DHT22;15261;50.356;10.340;2024-01-25T05:51:53;6.40;99.90
27922;DHT22;15261;50.356;10.340;2024-01-25T05:54:18;6.30;99.90
27922;DHT22;15261;50.356;10.340;2024-01-25T05:56:44;6.20;99.90
27922;DHT22;15261;50.356;10.340;2024-01-25T05:59:09;6.20;99.90
27922;DHT22;15261;50.356;10.340;2024-01-25T06:01:35;6.30;99.90
27922;DHT22;15261;50.356;10.340;2024-01-25T06:04:00;6.40;99.90
27922;DHT22;15261;50.356;10.340;2024-01-25T06:06:26;6.60;99.90
27922;DHT22;15261;50.356;10.340;2024-01-25T06:08:51;6.60;99.90
27922;DHT22;15261;50.356;10.340;2024-01-25T06:11:17;6.60;99.90
27922;DHT22;15261;50.356;10.340;2024-01-25T06:13:42;6.60;99.90
27922;DHT22;15261;50.356;10.340;2024-01-25T06:16:08;6.60;99.90
27922;DHT22;15261;50.356;10.340;2024-01-25T06:18:33;6.60;99.90
27922;DHT22;15261;50.356;10.340;2024-01-25T06:21:00;6.50;99.90
27922;DHT22;15261;50.356;10.340;2024-01-25T06:23:25;6.40;99.90
27922;DHT22;15261;50.356;10.340;2024-01-25T06:25:51;6.30;99.90
27922;DHT22;15261;50.356;10.340;2024-01-25T06:28:16;6.30;99.90
27922;DHT22;15261;50.356;10.340;2024-01-25T06:30:43;6.30;99.90
27922;DHT22;15261;50.356;10.340;2024-01-25T06:33:08;6.40;99.90
27922;DHT22;15261;50.356;10.340;2024-01-25T06:35:34;6.50;99.90
27922;DHT22;15261;50.356;10.340;2024-01-25T06:37:59;6.50;99.90
27922;DHT22;15261;50.356;10.340;2024-01-25T06:40:25;6.50;99.90
27922;DHT22;15261;50.356;10.340;2024-01-25T06:42:50;6.50;99.90
27922;DHT22;15261;50.356;10.340;2024-01-25T06:45:16;6.50;99.90
27922;DHT22;15261;50.356;10.340;2024-01-25T06:47:42;6.50;99.90
27922;DHT22;15261;50.356;10.340;2024-01-25T06:50:08;6.50;99.90
27922;DHT22;15261;50.356;10.340;2024-01-25T06:52:34;6.50;99.90
27922;DHT22;15261;50.356;10.340;2024-01-25T06:55:00;6.50;99.90
27922;DHT22;15261;50.356;10.340;2024-01-25T06:57:25;6.50;99.90
27922;DHT22;15261;50.356;10.340;2024-01-25T06:59:51;6.40;99.90
27922;DHT22;15261;50.356;10.340;2024-01-25T07:02:16;6.40;99.90
27922;DHT22;15261;50.356;10.340;2024-01-25T07:04:42;6.40;99.90
27922;DHT22;15261;50.356;10.340;2024-01-25T07:07:08;6.40;99.90
27922;DHT22;15261;50.356;10.340;2024-01-25T07:09:34;6.40;99.90
27922;DHT22;15261;50.356;10.340;2024-01-25T07:11:59;6.30;99.90
27922;DHT22;15261;50.356;10.340;2024-01-25T07:14:25;6.30;99.90
27922;DHT22;15261;50.356;10.340;2024-01-25T07:16:51;6.30;99.90
27922;DHT22;15261;50.356;10.340;2024-01-25T07:19:17;6.30;99.90
27922;DHT22;15261;50.356;10.340;2024-01-25T07:21:42;6.30;99.90
27922;DHT22;15261;50.356;10.340;2024-01-25T07:24:11;6.20;99.90
27922;DHT22;15261;50.356;10.340;2024-01-25T07:26:36;6.10;99.90
27922;DHT22;15261;50.356;10.340;2024-01-25T07:29:02;6.10;99.90
27922;DHT22;15261;50.356;10.340;2024-01-25T07:31:28;6.10;99.90
27922;DHT22;15261;50.356;10.340;2024-01-25T07:33:54;6.00;99.90
27922;DHT22;15261;50.356;10.340;2024-01-25T07:36:20;5.90;99.90
27922;DHT22;15261;50.356;10.340;2024-01-25T07:38:46;5.90;99.90
27922;DHT22;15261;50.356;10.340;2024-01-25T07:41:13;5.90;99.90
27922;DHT22;15261;50.356;10.340;2024-01-25T07:43:38;5.90;99.90
27922;DHT22;15261;50.356;10.340;2024-01-25T07:46:04;5.90;99.90
27922;DHT22;15261;50.356;10.340;2024-01-25T07:48:29;6.00;99.90
27922;DHT22;15261;50.356;10.340;2024-01-25T07:50:56;6.10;99.90
27922;DHT22;15261;50.356;10.340;2024-01-25T07:53:21;6.10;99.90
27922;DHT22;15261;50.356;10.340;2024-01-25T07:55:47;6.00;99.90
27922;DHT22;15261;50.356;10.340;2024-01-25T07:58:14;6.00;99.90
27922;DHT22;15261;50.356;10.340;2024-01-25T08:00:40;6.10;99.90
27922;DHT22;15261;50.356;10.340;2024-01-25T08:03:06;6.20;99.90
27922;DHT22;15261;50.356;10.340;2024-01-25T08:05:31;6.20;99.90
27922;DHT22;15261;50.356;10.340;2024-01-25T08:07:56;6.20;99.90
27922;DHT22;15261;50.356;10.340;2024-01-25T08:10:22;6.20;99.90
27922;DHT22;15261;50.356;10.340;2024-01-25T08:12:48;6.20;99.90
27922;DHT22;15261;50.356;10.340;2024-01-25T08:15:13;6.20;99.90
27922;DHT22;15261;50.356;10.340;2024-01-25T08:17:39;6.30;99.90
27922;DHT22;15261;50.356;10.340;2024-01-25T08:20:05;6.30;99.90
27922;DHT22;15261;50.356;10.340;2024-01-25T08:22:32;6.30;99.90
27922;DHT22;15261;50.356;10.340;2024-01-25T08:24:57;6.40;99.90
27922;DHT22;15261;50.356;10.340;2024-01-25T08:27:24;6.50;99.90
27922;DHT22;15261;50.356;10.340;2024-01-25T08:29:49;6.50;99.90
27922;DHT22;15261;50.356;10.340;2024-01-25T08:32:15;6.50;99.90
27922;DHT22;15261;50.356;10.340;2024-01-25T08:34:40;6.50;99.90
27922;DHT22;15261;50.356;10.340;2024-01-25T08:37:07;6.50;99.90
27922;DHT22;15261;50.356;10.340;2024-01-25T08:39:32;6.50;99.90
27922;DHT22;15261;50.356;10.340;2024-01-25T08:41:58;6.50;99.90
27922;DHT22;15261;50.356;10.340;2024-01-25T08:44:27;6.60;99.90
27922;DHT22;15261;50.356;10.340;2024-01-25T08:46:52;6.60;99.90
27922;DHT22;15261;50.356;10.340;2024-01-25T08:49:18;6.70;99.90
27922;DHT22;15261;50.356;10.340;2024-01-25T08:51:43;6.70;99.90
27922;DHT22;15261;50.356;10.340;2024-01-25T08:54:09;6.70;99.90
27922;DHT22;15261;50.356;10.340;2024-01-25T08:56:34;6.80;99.90
27922;DHT22;15261;50.356;10.340;2024-01-25T08:59:00;6.80;99.90
27922;DHT22;15261;50.356;10.340;2024-01-25T09:01:26;6.80;99.90
27922;DHT22;15261;50.356;10.340;2024-01-25T09:03:52;6.90;99.90
27922;DHT22;15261;50.356;10.340;2024-01-25T09:06:17;6.90;99.90
27922;DHT22;15261;50.356;10.340;2024-01-25T09:08:43;6.90;99.90
27922;DHT22;15261;50.356;10.340;2024-01-25T09:11:08;7.00;99.90
27922;DHT22;15261;50.356;10.340;2024-01-25T09:13:34;7.00;99.90
27922;DHT22;15261;50.356;10.340;2024-01-25T09:15:59;7.10;99.90
27922;DHT22;15261;50.356;10.340;2024-01-25T09:18:25;7.10;99.90
27922;DHT22;15261;50.356;10.340;2024-01-25T09:20:50;7.20;99.90
27922;DHT22;15261;50.356;10.340;2024-01-25T09:23:16;7.30;99.90
27922;DHT22;15261;50.356;10.340;2024-01-25T09:25:43;7.40;99.90
27922;DHT22;15261;50.356;10.340;2024-01-25T09:28:10;7.60;99.90
27922;DHT22;15261;50.356;10.340;2024-01-25T09:30:40;7.70;99.90
27922;DHT22;15261;50.356;10.340;2024-01-25T09:33:07;7.80;99.90
27922;DHT22;15261;50.356;10.340;2024-01-25T09:35:32;7.90;99.90
27922;DHT22;15261;50.356;10.340;2024-01-25T09:37:58;8.00;99.90
27922;DHT22;15261;50.356;10.340;2024-01-25T09:40:23;8.00;99.90
27922;DHT22;15261;50.356;10.340;2024-01-25T09:42:49;8.10;99.90
27922;DHT22;15261;50.356;10.340;2024-01-25T09:45:18;8.10;99.90
27922;DHT22;15261;50.356;10.340;2024-01-25T09:47:48;8.20;99.90
27922;DHT22;15261;50.356;10.340;2024-01-25T09:50:13;8.40;99.90
27922;DHT22;15261;50.356;10.340;2024-01-25T09:52:43;8.50;99.90
27922;DHT22;15261;50.356;10.340;2024-01-25T09:55:11;8.50;99.90
27922;DHT22;15261;50.356;10.340;2024-01-25T09:57:41;8.70;99.90
27922;DHT22;15261;50.356;10.340;2024-01-25T10:00:10;8.80;99.90
27922;DHT22;15261;50.356;10.340;2024-01-25T10:02:37;8.90;99.90
27922;DHT22;15261;50.356;10.340;2024-01-25T10:05:03;8.90;99.90
27922;DHT22;15261;50.356;10.340;2024-01-25T10:07:43;8.70;99.90
27922;DHT22;15261;50.356;10.340;2024-01-25T10:10:10;8.60;99.90
27922;DHT22;15261;50.356;10.340;2024-01-25T10:12:41;8.60;99.90
27922;DHT22;15261;50.356;10.340;2024-01-25T10:15:07;8.50;99.90
27922;DHT22;15261;50.356;10.340;2024-01-25T10:17:33;8.40;99.90
27922;DHT22;15261;50.356;10.340;2024-01-25T10:19:59;8.30;99.90
27922;DHT22;15261;50.356;10.340;2024-01-25T10:22:24;8.30;99.90
27922;DHT22;15261;50.356;10.340;2024-01-25T10:24:50;8.30;99.90
27922;DHT22;15261;50.356;10.340;2024-01-25T10:27:16;8.20;99.90
27922;DHT22;15261;50.356;10.340;2024-01-25T10:29:43;8.20;99.90
27922;DHT22;15261;50.356;10.340;2024-01-25T10:32:09;8.20;99.90
27922;DHT22;15261;50.356;10.340;2024-01-25T10:34:36;8.20;99.90
27922;DHT22;15261;50.356;10.340;2024-01-25T10:37:06;8.30;99.90
27922;DHT22;15261;50.356;10.340;2024-01-25T10:39:32;8.30;99.90
27922;DHT22;15261;50.356;10.340;2024-01-25T10:41:59;8.30;99.90
27922;DHT22;15261;50.356;10.340;2024-01-25T10:44:25;8.30;99.90
27922;DHT22;15261;50.356;10.340;2024-01-25T10:46:50;8.40;99.90
27922;DHT22;15261;50.356;10.340;2024-01-25T10:49:17;8.40;99.90
27922;DHT22;15261;50.356;10.340;2024-01-25T10:51:44;8.50;99.90
27922;DHT22;15261;50.356;10.340;2024-01-25T10:54:14;8.50;99.90
27922;DHT22;15261;50.356;10.340;2024-01-25T10:56:45;8.60;99.90
27922;DHT22;15261;50.356;10.340;2024-01-25T10:59:11;8.60;99.90
27922;DHT22;15261;50.356;10.340;2024-01-25T11:01:37;8.60;99.90
27922;DHT22;15261;50.356;10.340;2024-01-25T11:04:11;8.50;99.90
27922;DHT22;15261;50.356;10.340;2024-01-25T11:06:37;8.60;99.90
27922;DHT22;15261;50.356;10.340;2024-01-25T11:09:06;8.60;99.90
27922;DHT22;15261;50.356;10.340;2024-01-25T11:11:32;8.60;99.90
27922;DHT22;15261;50.356;10.340;2024-01-25T11:13:58;8.50;99.90
27922;DHT22;15261;50.356;10.340;2024-01-25T11:16:31;8.40;99.90
27922;DHT22;15261;50.356;10.340;2024-01-25T11:18:58;8.40;99.90
27922;DHT22;15261;50.356;10.340;2024-01-25T11:21:48;8.40;99.90
27922;DHT22;15261;50.356;10.340;2024-01-25T11:24:23;8.40;99.90
27922;DHT22;15261;50.356;10.340;2024-01-25T11:26:49;8.50;99.90
27922;DHT22;15261;50.356;10.340;2024-01-25T11:29:19;8.60;99.90
27922;DHT22;15261;50.356;10.340;2024-01-25T11:31:48;8.70;99.90
27922;DHT22;15261;50.356;10.340;2024-01-25T11:34:15;8.80;99.90
27922;DHT22;15261;50.356;10.340;2024-01-25T11:36:44;8.70;99.90
27922;DHT22;15261;50.356;10.340;2024-01-25T11:39:11;8.70;99.90
27922;DHT22;15261;50.356;10.340;2024-01-25T11:41:37;8.70;99.90
27922;DHT22;15261;50.356;10.340;2024-01-25T11:44:03;8.70;99.90
27922;DHT22;15261;50.356;10.340;2024-01-25T11:46:30;8.80;99.90
27922;DHT22;15261;50.356;10.340;2024-01-25T11:48:56;8.80;99.90
27922;DHT22;15261;50.356;10.340;2024-01-25T11:51:22;8.80;99.90
27922;DHT22;15261;50.356;10.340;2024-01-25T11:53:47;8.90;99.90
27922;DHT22;15261;50.356;10.340;2024-01-25T11:56:17;8.80;99.90
27922;DHT22;15261;50.356;10.340;2024-01-25T11:58:45;8.80;99.90
27922;DHT22;15261;50.356;10.340;2024-01-25T12:01:12;8.80;99.90
27922;DHT22;15261;50.356;10.340;2024-01-25T12:03:38;8.90;99.90
27922;DHT22;15261;50.356;10.340;2024-01-25T12:06:05;8.80;99.90
27922;DHT22;15261;50.356;10.340;2024-01-25T12:08:32;8.80;99.90
27922;DHT22;15261;50.356;10.340;2024-01-25T12:11:03;8.80;99.90
27922;DHT22;15261;50.356;10.340;2024-01-25T12:13:35;8.80;99.90
27922;DHT22;15261;50.356;10.340;2024-01-25T12:16:02;8.80;99.90
27922;DHT22;15261;50.356;10.340;2024-01-25T12:18:29;8.70;99.90
27922;DHT22;15261;50.356;10.340;2024-01-25T12:20:57;8.70;99.90
27922;DHT22;15261;50.356;10.340;2024-01-25T12:23:23;8.60;99.90
27922;DHT22;15261;50.356;10.340;2024-01-25T12:25:48;8.60;99.90
27922;DHT22;15261;50.356;10.340;2024-01-25T12:28:14;8.70;99.90
27922;DHT22;15261;50.356;10.340;2024-01-25T12:30:39;8.80;99.90
27922;DHT22;15261;50.356;10.340;2024-01-25T12:33:05;8.90;99.90
27922;DHT22;15261;50.356;10.340;2024-01-25T12:35:31;8.90;99.90
27922;DHT22;15261;50.356;10.340;2024-01-25T12:37:56;8.90;99.90
27922;DHT22;15261;50.356;10.340;2024-01-25T12:40:22;9.00;99.90
27922;DHT22;15261;50.356;10.340;2024-01-25T12:42:47;8.90;99.90
27922;DHT22;15261;50.356;10.340;2024-01-25T12:45:13;9.00;99.90
27922;DHT22;15261;50.356;10.340;2024-01-25T12:47:39;9.00;99.90
27922;DHT22;15261;50.356;10.340;2024-01-25T12:50:05;9.00;99.90
27922;DHT22;15261;50.356;10.340;2024-01-25T12:52:31;9.00;99.90
27922;DHT22;15261;50.356;10.340;2024-01-25T12:54:56;9.00;99.90
27922;DHT22;15261;50.356;10.340;2024-01-25T12:57:22;9.00;99.90
27922;DHT22;15261;50.356;10.340;2024-01-25T12:59:48;9.00;99.90
27922;DHT22;15261;50.356;10.340;2024-01-25T13:02:14;9.00;99.90
27922;DHT22;15261;50.356;10.340;2024-01-25T13:04:40;9.00;99.90
27922;DHT22;15261;50.356;10.340;2024-01-25T13:07:05;9.00;99.90
27922;DHT22;15261;50.356;10.340;2024-01-25T13:09:31;9.00;99.90
27922;DHT22;15261;50.356;10.340;2024-01-25T13:12:00;8.90;99.90
27922;DHT22;15261;50.356;10.340;2024-01-25T13:14:25;8.90;99.90
27922;DHT22;15261;50.356;10.340;2024-01-25T13:16:51;8.70;99.90
27922;DHT22;15261;50.356;10.340;2024-01-25T13:19:17;8.60;99.90
27922;DHT22;15261;50.356;10.340;2024-01-25T13:21:42;8.50;99.90
27922;DHT22;15261;50.356;10.340;2024-01-25T13:24:08;8.40;99.90
27922;DHT22;15261;50.356;10.340;2024-01-25T13:26:35;8.30;99.90
27922;DHT22;15261;50.356;10.340;2024-01-25T13:29:01;8.30;99.90
27922;DHT22;15261;50.356;10.340;2024-01-25T13:31:27;8.20;99.90
27922;DHT22;15261;50.356;10.340;2024-01-25T13:33:52;8.10;99.90
27922;DHT22;15261;50.356;10.340;2024-01-25T13:36:18;8.00;99.90
27922;DHT22;15261;50.356;10.340;2024-01-25T13:38:44;8.00;99.90
27922;DHT22;15261;50.356;10.340;2024-01-25T13:41:09;7.80;99.90
27922;DHT22;15261;50.356;10.340;2024-01-25T13:43:35;7.70;99.90
27922;DHT22;15261;50.356;10.340;2024-01-25T13:46:00;7.70;99.90
27922;DHT22;15261;50.356;10.340;2024-01-25T13:48:26;7.50;99.90
27922;DHT22;15261;50.356;10.340;2024-01-25T13:51:12;7.60;99.90
27922;DHT22;15261;50.356;10.340;2024-01-25T13:53:38;7.40;99.90
27922;DHT22;15261;50.356;10.340;2024-01-25T13:56:41;7.40;99.90
27922;DHT22;15261;50.356;10.340;2024-01-25T13:59:06;7.30;99.90
27922;DHT22;15261;50.356;10.340;2024-01-25T14:01:51;7.20;99.90
27922;DHT22;15261;50.356;10.340;2024-01-25T14:04:17;7.10;99.90
27922;DHT22;15261;50.356;10.340;2024-01-25T14:06:43;7.10;99.90
27922;DHT22;15261;50.356;10.340;2024-01-25T14:09:09;7.00;99.90
27922;DHT22;15261;50.356;10.340;2024-01-25T14:11:35;6.90;99.90
27922;DHT22;15261;50.356;10.340;2024-01-25T14:14:00;6.90;99.90
27922;DHT22;15261;50.356;10.340;2024-01-25T14:16:26;7.00;99.90
27922;DHT22;15261;50.356;10.340;2024-01-25T14:18:51;6.90;99.90
27922;DHT22;15261;50.356;10.340;2024-01-25T14:21:19;6.90;99.90
27922;DHT22;15261;50.356;10.340;2024-01-25T14:23:46;6.90;99.90
27922;DHT22;15261;50.356;10.340;2024-01-25T14:26:29;6.80;99.90
27922;DHT22;15261;50.356;10.340;2024-01-25T14:29:34;6.80;99.90
27922;DHT22;15261;50.356;10.340;2024-01-25T14:32:51;6.70;99.90
27922;DHT22;15261;50.356;10.340;2024-01-25T14:50:06;6.60;99.90
27922;DHT22;15261;50.356;10.340;2024-01-25T14:53:01;6.60;99.90
27922;DHT22;15261;50.356;10.340;2024-01-25T14:58:22;6.60;99.90
27922;DHT22;15261;50.356;10.340;2024-01-25T15:00:57;6.60;99.90
27922;DHT22;15261;50.356;10.340;2024-01-25T15:03:24;6.60;99.90
27922;DHT22;15261;50.356;10.340;2024-01-25T15:05:57;6.60;99.90
27922;DHT22;15261;50.356;10.340;2024-01-25T15:08:36;6.60;99.90
27922;DHT22;15261;50.356;10.340;2024-01-25T15:11:13;6.60;99.90
27922;DHT22;15261;50.356;10.340;2024-01-25T15:13:39;6.60;99.90
27922;DHT22;15261;50.356;10.340;2024-01-25T15:16:13;6.50;99.90
27922;DHT22;15261;50.356;10.340;2024-01-25T15:18:39;6.50;99.90
27922;DHT22;15261;50.356;10.340;2024-01-25T15:21:05;6.50;99.90
27922;DHT22;15261;50.356;10.340;2024-01-25T15:23:31;6.40;99.90
27922;DHT22;15261;50.356;10.340;2024-01-25T15:26:02;6.40;99.90
27922;DHT22;15261;50.356;10.340;2024-01-25T15:28:28;6.40;99.90
27922;DHT22;15261;50.356;10.340;2024-01-25T15:30:53;6.30;99.90
27922;DHT22;15261;50.356;10.340;2024-01-25T15:33:19;6.30;99.90
27922;DHT22;15261;50.356;10.340;2024-01-25T15:35:45;6.10;99.90
27922;DHT22;15261;50.356;10.340;2024-01-25T15:38:12;6.00;99.90
27922;DHT22;15261;50.356;10.340;2024-01-25T15:40:46;5.90;99.90
27922;DHT22;15261;50.356;10.340;2024-01-25T15:43:38;5.80;99.90
27922;DHT22;15261;50.356;10.340;2024-01-25T15:46:04;5.70;99.90
27922;DHT22;15261;50.356;10.340;2024-01-25T15:48:29;5.60;99.90
27922;DHT22;15261;50.356;10.340;2024-01-25T15:50:55;5.50;99.90
27922;DHT22;15261;50.356;10.340;2024-01-25T15:53:21;5.50;99.90
27922;DHT22;15261;50.356;10.340;2024-01-25T15:55:46;5.40;99.90
27922;DHT22;15261;50.356;10.340;2024-01-25T15:58:12;5.30;99.90
27922;DHT22;15261;50.356;10.340;2024-01-25T16:00:38;5.20;99.90
27922;DHT22;15261;50.356;10.340;2024-01-25T16:03:04;5.10;99.90
27922;DHT22;15261;50.356;10.340;2024-01-25T16:05:29;5.10;99.90
27922;DHT22;15261;50.356;10.340;2024-01-25T16:07:55;5.00;99.90